createdAt,value
2023-02-27T00:00:22.263Z,2.58
2023-02-27T00:03:25.011Z,3.05
2023-02-27T00:06:28.416Z,2.65
2023-02-27T00:09:31.270Z,2.50
2023-02-27T00:12:38.029Z,2.75
2023-02-27T00:15:41.103Z,2.75
2023-02-27T00:18:43.621Z,2.37
2023-02-27T00:21:46.680Z,2.30
2023-02-27T00:24:49.055Z,2.92
2023-02-27T00:27:52.992Z,2.35
2023-02-27T00:30:55.833Z,2.90
2023-02-27T00:33:59.018Z,2.28
2023-02-27T00:37:01.480Z,2.67
2023-02-27T00:40:08.024Z,3.15
2023-02-27T00:43:10.479Z,3.17
2023-02-27T00:46:13.452Z,3.08
2023-02-27T00:49:15.891Z,3.15
2023-02-27T00:52:21.028Z,2.65
2023-02-27T00:55:24.537Z,2.60
2023-02-27T00:58:28.619Z,2.92
2023-02-27T01:01:31.214Z,2.70
2023-02-27T01:04:34.180Z,2.83
2023-02-27T01:07:37.700Z,2.60
2023-02-27T01:10:40.502Z,3.25
2023-02-27T01:13:44.323Z,2.90
2023-02-27T01:16:47.095Z,2.65
2023-02-27T01:19:50.580Z,2.70
2023-02-27T01:22:53.469Z,2.90
2023-02-27T01:25:56.470Z,2.70
2023-02-27T01:28:59.216Z,3.08
2023-02-27T01:32:01.905Z,3.03
2023-02-27T01:35:05.081Z,2.78
2023-02-27T01:38:07.922Z,3.40
2023-02-27T01:41:10.867Z,2.20
2023-02-27T01:44:14.656Z,2.60
2023-02-27T01:47:18.273Z,2.65
2023-02-27T01:50:20.797Z,2.60
2023-02-27T01:53:26.236Z,2.78
2023-02-27T01:56:31.507Z,3.15
2023-02-27T01:59:35.958Z,2.05
2023-02-27T02:02:42.400Z,2.33
2023-02-27T02:05:47.202Z,2.50
2023-02-27T02:08:53.343Z,1.70
2023-02-27T02:11:57.911Z,2.60
2023-02-27T02:15:01.003Z,2.05
2023-02-27T02:18:11.633Z,2.20
2023-02-27T02:21:29.659Z,2.58
2023-02-27T02:25:00.201Z,2.53
2023-02-27T02:28:24.602Z,2.30
2023-02-27T02:31:44.391Z,2.37
2023-02-27T02:35:22.824Z,2.58
2023-02-27T02:38:55.823Z,2.30
2023-02-27T02:42:21.413Z,3.05
2023-02-27T02:45:35.511Z,2.28
2023-02-27T02:48:53.194Z,2.00
2023-02-27T02:52:07.920Z,2.22
2023-02-27T02:55:18.461Z,1.98
2023-02-27T02:58:34.086Z,2.30
2023-02-27T03:01:44.685Z,3.05
2023-02-27T03:04:58.024Z,2.55
2023-02-27T03:08:07.147Z,2.10
2023-02-27T03:11:09.864Z,2.50
2023-02-27T03:14:34.740Z,3.10
2023-02-27T03:18:03.494Z,2.42
2023-02-27T03:21:13.687Z,2.47
2023-02-27T03:24:25.873Z,2.67
2023-02-27T03:27:35.251Z,2.35
2023-02-27T03:31:08.325Z,2.35
2023-02-27T03:34:32.971Z,2.25
2023-02-27T03:37:51.773Z,2.30
2023-02-27T03:41:03.491Z,2.03
2023-02-27T03:44:20.066Z,2.42
2023-02-27T03:47:23.423Z,2.53
2023-02-27T03:50:25.982Z,2.30
2023-02-27T03:53:43.830Z,2.00
2023-02-27T03:56:55.989Z,2.55
2023-02-27T04:00:00.040Z,1.90
2023-02-27T04:03:02.778Z,1.73
2023-02-27T04:06:26.141Z,1.90
2023-02-27T04:09:50.929Z,1.80
2023-02-27T04:13:39.899Z,2.22
2023-02-27T04:17:08.267Z,1.83
2023-02-27T04:20:39.044Z,2.05
2023-02-27T04:27:00.527Z,1.85
2023-02-27T04:30:24.631Z,2.15
2023-02-27T04:33:48.233Z,2.17
2023-02-27T04:37:02.667Z,2.37
2023-02-27T04:40:19.119Z,2.00
2023-02-27T04:43:24.432Z,1.98
2023-02-27T04:46:29.715Z,2.08
2023-02-27T04:49:46.384Z,2.12
2023-02-27T04:52:57.317Z,1.77
2023-02-27T04:56:05.993Z,2.05
2023-02-27T04:59:20.876Z,1.60
2023-02-27T05:02:33.089Z,1.80
2023-02-27T05:05:38.762Z,2.30
2023-02-27T05:08:58.393Z,2.10
2023-02-27T05:12:32.410Z,2.10
2023-02-27T05:15:44.567Z,1.90
2023-02-27T05:18:48.868Z,2.10
2023-02-27T05:22:40.891Z,2.15
2023-02-27T05:25:55.588Z,2.05
2023-02-27T05:29:11.756Z,1.35
2023-02-27T05:32:49.142Z,3.22
2023-02-27T05:40:39.530Z,1.95
2023-02-27T05:44:20.942Z,1.55
2023-02-27T05:50:37.800Z,1.52
2023-02-27T05:53:44.565Z,1.15
2023-02-27T05:56:51.316Z,1.40
2023-02-27T06:00:13.801Z,1.73
2023-02-27T06:03:17.666Z,2.53
2023-02-27T06:06:23.680Z,1.50
2023-02-27T06:09:28.514Z,2.00
2023-02-27T06:12:30.706Z,1.08
2023-02-27T06:15:33.866Z,1.30
2023-02-27T06:18:36.217Z,1.48
2023-02-27T06:21:39.316Z,1.58
2023-02-27T06:24:41.856Z,1.20
2023-02-27T06:27:44.545Z,1.50
2023-02-27T06:30:47.260Z,1.27
2023-02-27T06:33:51.225Z,1.48
2023-02-27T06:36:53.602Z,1.65
2023-02-27T06:39:57.147Z,1.42
2023-02-27T06:42:59.759Z,1.87
2023-02-27T06:46:02.853Z,1.77
2023-02-27T06:49:05.428Z,1.55
2023-02-27T06:52:08.100Z,1.80
2023-02-27T06:55:11.287Z,1.60
2023-02-27T06:58:14.468Z,1.67
2023-02-27T07:01:16.892Z,2.08
2023-02-27T07:04:20.723Z,1.42
2023-02-27T07:07:35.354Z,1.58
2023-02-27T07:10:40.263Z,1.58
2023-02-27T07:13:43.041Z,1.37
2023-02-27T07:16:54.017Z,1.87
2023-02-27T07:19:59.170Z,1.95
2023-02-27T07:23:04.571Z,1.50
2023-02-27T07:26:06.786Z,1.33
2023-02-27T07:29:09.820Z,1.65
2023-02-27T07:32:12.072Z,1.48
2023-02-27T07:35:15.986Z,1.35
2023-02-27T07:38:27.035Z,1.40
2023-02-27T07:41:37.950Z,1.83
2023-02-27T07:44:41.569Z,1.55
2023-02-27T07:47:45.463Z,1.60
2023-02-27T07:50:47.786Z,1.80
2023-02-27T07:53:50.550Z,1.45
2023-02-27T07:56:53.211Z,1.40
2023-02-27T07:59:55.765Z,2.08
2023-02-27T08:02:58.101Z,1.83
2023-02-27T08:06:02.440Z,2.03
2023-02-27T08:09:06.320Z,1.33
2023-02-27T08:12:09.171Z,1.65
2023-02-27T08:15:11.932Z,1.73
2023-02-27T08:18:14.871Z,1.58
2023-02-27T08:21:17.296Z,3.28
2023-02-27T08:24:21.709Z,2.53
2023-02-27T08:27:31.379Z,2.40
2023-02-27T08:30:34.428Z,1.83
2023-02-27T08:33:36.977Z,1.92
2023-02-27T08:36:42.746Z,2.05
2023-02-27T08:39:45.316Z,1.90
2023-02-27T08:42:48.374Z,2.05
2023-02-27T08:45:51.573Z,2.05
2023-02-27T08:48:56.672Z,2.97
2023-02-27T08:51:59.320Z,2.08
2023-02-27T08:55:02.359Z,2.17
2023-02-27T08:58:04.709Z,2.53
2023-02-27T09:01:07.395Z,2.83
2023-02-27T09:04:10.214Z,2.40
2023-02-27T09:07:13.638Z,2.20
2023-02-27T09:10:16.310Z,2.58
2023-02-27T09:13:19.788Z,2.20
2023-02-27T09:16:22.982Z,2.05
2023-02-27T09:19:26.492Z,2.47
2023-02-27T09:22:28.891Z,2.08
2023-02-27T09:25:34.220Z,2.67
2023-02-27T09:28:37.553Z,2.53
2023-02-27T09:31:40.393Z,2.53
2023-02-27T09:34:42.634Z,2.65
2023-02-27T09:37:45.298Z,2.67
2023-02-27T09:40:50.496Z,2.50
2023-02-27T09:43:55.432Z,2.60
2023-02-27T09:47:00.529Z,3.03
2023-02-27T09:50:09.313Z,2.62
2023-02-27T09:53:22.683Z,3.12
2023-02-27T09:56:32.398Z,2.60
2023-02-27T09:59:52.533Z,2.85
2023-02-27T10:03:22.996Z,2.55
2023-02-27T10:06:41.305Z,2.95
2023-02-27T10:10:00.481Z,2.90
2023-02-27T10:13:14.931Z,3.00
2023-02-27T10:16:28.756Z,3.15
2023-02-27T10:19:37.441Z,2.72
2023-02-27T10:22:45.117Z,2.20
2023-02-27T10:25:50.872Z,2.40
2023-02-27T10:28:53.210Z,2.62
2023-02-27T10:32:13.339Z,2.70
2023-02-27T10:35:32.814Z,3.00
2023-02-27T10:38:44.497Z,3.80
2023-02-27T10:41:47.635Z,2.83
2023-02-27T10:44:53.673Z,2.30
2023-02-27T10:47:57.055Z,2.60
2023-02-27T10:51:26.413Z,3.03
2023-02-27T10:54:28.919Z,2.47
2023-02-27T10:57:43.034Z,2.85
2023-02-27T11:00:52.898Z,2.33
2023-02-27T11:03:57.180Z,2.90
2023-02-27T11:07:01.758Z,2.75
2023-02-27T11:10:23.225Z,2.35
2023-02-27T11:13:28.411Z,3.20
2023-02-27T11:16:52.953Z,3.03
2023-02-27T11:19:56.633Z,3.12
2023-02-27T11:23:26.155Z,2.90
2023-02-27T11:26:39.148Z,3.30
2023-02-27T11:30:22.559Z,2.87
2023-02-27T11:33:26.918Z,2.67
2023-02-27T11:37:00.663Z,2.97
2023-02-27T11:40:09.007Z,2.92
2023-02-27T11:43:21.762Z,2.78
2023-02-27T11:46:46.067Z,3.12
2023-02-27T11:49:51.505Z,3.10
2023-02-27T11:53:17.825Z,3.00
2023-02-27T11:56:31.383Z,2.67
2023-02-27T11:59:47.968Z,2.65
2023-02-27T12:03:25.185Z,2.87
2023-02-27T12:06:49.444Z,3.35
2023-02-27T12:09:57.778Z,3.35
2023-02-27T12:13:07.170Z,2.97
2023-02-27T12:16:42.460Z,2.90
2023-02-27T12:19:50.786Z,2.62
2023-02-27T12:22:54.772Z,2.87
2023-02-27T12:26:06.040Z,3.00
2023-02-27T12:29:49.529Z,2.35
2023-02-27T12:32:57.807Z,2.75
2023-02-27T12:36:03.137Z,3.00
2023-02-27T12:39:06.698Z,2.62
2023-02-27T12:42:21.296Z,3.20
2023-02-27T12:45:45.581Z,3.28
2023-02-27T12:49:22.047Z,2.47
2023-02-27T12:52:49.676Z,3.00
2023-02-27T12:56:04.249Z,2.60
2023-02-27T12:59:30.076Z,3.25
2023-02-27T13:02:51.062Z,3.33
2023-02-27T13:05:54.662Z,3.28
2023-02-27T13:09:04.771Z,3.33
2023-02-27T13:12:07.815Z,2.55
2023-02-27T13:15:23.619Z,3.12
2023-02-27T13:18:39.678Z,3.03
2023-02-27T13:21:55.328Z,2.87
2023-02-27T13:25:02.030Z,2.67
2023-02-27T13:28:15.430Z,3.15
2023-02-27T13:31:27.419Z,2.85
2023-02-27T13:34:42.712Z,3.50
2023-02-27T13:37:54.198Z,2.60
2023-02-27T13:40:56.668Z,3.03
2023-02-27T13:44:20.491Z,3.25
2023-02-27T13:47:43.277Z,3.40
2023-02-27T13:50:45.915Z,3.00
2023-02-27T13:53:48.325Z,3.42
2023-02-27T13:56:59.688Z,3.35
2023-02-27T14:00:08.988Z,3.35
2023-02-27T14:03:25.865Z,3.22
2023-02-27T14:06:29.830Z,2.92
2023-02-27T14:09:41.437Z,3.40
2023-02-27T14:12:46.454Z,3.42
2023-02-27T14:15:52.124Z,3.67
2023-02-27T14:18:58.526Z,4.25
2023-02-27T14:22:32.244Z,3.03
2023-02-27T14:25:39.427Z,3.47
2023-02-27T14:29:02.468Z,3.50
2023-02-27T14:32:09.009Z,3.90
2023-02-27T14:35:16.883Z,3.87
2023-02-27T14:38:21.528Z,3.97
2023-02-27T14:41:33.985Z,4.97
2023-02-27T14:44:41.823Z,3.42
2023-02-27T14:47:53.754Z,4.12
2023-02-27T14:50:58.093Z,3.35
2023-02-27T14:54:04.542Z,4.12
2023-02-27T14:57:07.994Z,5.12
2023-02-27T15:00:35.044Z,4.22
2023-02-27T15:03:47.917Z,4.25
2023-02-27T15:06:52.474Z,3.78
2023-02-27T15:09:58.388Z,3.30
2023-02-27T15:13:02.517Z,3.83
2023-02-27T15:16:23.576Z,4.65
2023-02-27T15:19:28.226Z,4.18
2023-02-27T15:22:39.763Z,3.42
2023-02-27T15:25:42.371Z,4.00
2023-02-27T15:28:45.130Z,4.25
2023-02-27T15:31:47.611Z,4.05
2023-02-27T15:34:50.738Z,3.67
2023-02-27T15:37:55.879Z,3.50
2023-02-27T15:41:00.460Z,4.15
2023-02-27T15:44:04.411Z,4.30
2023-02-27T15:47:10.350Z,3.78
2023-02-27T15:50:15.652Z,3.37
2023-02-27T15:53:24.600Z,4.05
2023-02-27T15:56:34.300Z,3.35
2023-02-27T15:59:41.986Z,3.90
2023-02-27T16:02:54.170Z,4.07
2023-02-27T16:05:57.872Z,4.20
2023-02-27T16:09:20.050Z,3.67
2023-02-27T16:12:38.045Z,4.32
2023-02-27T16:15:41.184Z,3.90
2023-02-27T16:18:46.889Z,3.97
2023-02-27T16:22:15.265Z,4.45
2023-02-27T16:25:19.339Z,3.65
2023-02-27T16:28:21.665Z,4.90
2023-02-27T16:31:31.050Z,3.87
2023-02-27T16:37:50.223Z,3.70
2023-02-27T16:40:52.728Z,4.07
2023-02-27T16:43:56.032Z,3.95
2023-02-27T16:47:02.217Z,4.28
2023-02-27T16:50:12.461Z,4.05
2023-02-27T16:53:16.908Z,4.28
2023-02-27T16:56:32.253Z,4.35
2023-02-27T16:59:41.144Z,3.92
2023-02-27T17:02:44.211Z,4.30
2023-02-27T17:05:48.639Z,3.70
2023-02-27T17:08:51.533Z,4.60
2023-02-27T17:11:55.229Z,4.00
2023-02-27T17:14:57.824Z,4.10
2023-02-27T17:18:00.445Z,4.07
2023-02-27T17:21:04.095Z,4.12
2023-02-27T17:24:06.993Z,4.55
2023-02-27T17:27:09.690Z,4.18
2023-02-27T17:30:15.738Z,4.28
2023-02-27T17:33:18.368Z,4.60
2023-02-27T17:36:22.353Z,4.32
2023-02-27T17:39:25.038Z,5.37
2023-02-27T17:42:27.432Z,5.35
2023-02-27T17:45:30.135Z,5.22
2023-02-27T17:48:32.869Z,5.78
2023-02-27T17:51:35.746Z,6.03
2023-02-27T17:54:38.416Z,6.05
2023-02-27T17:57:41.134Z,5.62
2023-02-27T18:00:43.342Z,5.72
2023-02-27T18:03:46.591Z,5.93
2023-02-27T18:06:50.548Z,6.70
2023-02-27T18:09:53.202Z,5.82
2023-02-27T18:12:55.468Z,6.37
2023-02-27T18:15:57.952Z,7.32
2023-02-27T18:19:03.468Z,7.95
2023-02-27T18:22:11.912Z,7.53
2023-02-27T18:25:15.844Z,6.75
2023-02-27T18:28:19.414Z,7.12
2023-02-27T18:31:27.855Z,9.18
2023-02-27T18:37:33.302Z,7.07
2023-02-27T18:40:36.039Z,7.62
2023-02-27T18:43:43.237Z,6.72
2023-02-27T18:46:46.268Z,6.80
2023-02-27T18:49:48.590Z,6.22
2023-02-27T18:52:51.693Z,5.70
2023-02-27T18:56:00.353Z,4.50
2023-02-27T18:59:05.186Z,5.03
2023-02-27T19:02:13.826Z,4.30
2023-02-27T19:05:16.961Z,5.00
2023-02-27T19:08:19.276Z,4.68
2023-02-27T19:11:26.329Z,4.70
2023-02-27T19:14:28.855Z,4.43
2023-02-27T19:17:31.453Z,4.97
2023-02-27T19:20:34.798Z,4.05
2023-02-27T19:23:38.853Z,4.78
2023-02-27T19:26:41.448Z,4.97
2023-02-27T19:29:44.136Z,3.97
2023-02-27T19:32:46.469Z,4.15
2023-02-27T19:35:49.740Z,4.50
2023-02-27T19:38:52.626Z,4.53
2023-02-27T19:41:56.515Z,4.05
2023-02-27T19:44:59.092Z,5.37
2023-02-27T19:48:01.874Z,4.18
2023-02-27T19:51:07.673Z,4.75
2023-02-27T19:54:15.460Z,5.25
2023-02-27T19:57:19.174Z,4.28
2023-02-27T20:00:23.458Z,3.72
2023-02-27T20:03:27.877Z,4.40
2023-02-27T20:06:33.739Z,4.50
2023-02-27T20:09:36.431Z,4.50
2023-02-27T20:12:38.666Z,4.70
2023-02-27T20:15:41.531Z,4.22
2023-02-27T20:18:44.242Z,4.25
2023-02-27T20:21:47.751Z,4.00
2023-02-27T20:24:50.082Z,4.80
2023-02-27T20:27:52.761Z,5.15
2023-02-27T20:30:55.486Z,4.80
2023-02-27T20:34:01.031Z,4.32
2023-02-27T20:37:03.689Z,4.90
2023-02-27T20:40:10.318Z,4.47
2023-02-27T20:43:12.641Z,4.78
2023-02-27T20:46:18.098Z,5.10
2023-02-27T20:49:21.980Z,4.85
2023-02-27T20:52:25.247Z,4.72
2023-02-27T20:55:27.627Z,4.85
2023-02-27T20:58:30.756Z,4.60
2023-02-27T21:01:33.811Z,5.72
2023-02-27T21:04:44.073Z,4.87
2023-02-27T21:07:46.815Z,4.45
2023-02-27T21:10:51.553Z,4.35
2023-02-27T21:13:55.132Z,4.18
2023-02-27T21:16:58.565Z,4.72
2023-02-27T21:20:06.684Z,4.40
2023-02-27T21:24:07.993Z,4.55
2023-02-27T21:27:10.370Z,4.30
2023-02-27T21:30:13.167Z,4.72
2023-02-27T21:33:15.720Z,4.03
2023-02-27T21:36:23.853Z,5.10
2023-02-27T21:39:28.552Z,4.12
2023-02-27T21:42:31.751Z,4.55
2023-02-27T21:45:36.695Z,4.43
2023-02-27T21:48:39.882Z,4.43
2023-02-27T21:51:42.681Z,4.22
2023-02-27T21:54:45.665Z,4.40
2023-02-27T21:57:48.239Z,4.50
2023-02-27T22:00:50.927Z,4.87
2023-02-27T22:03:54.281Z,4.95
2023-02-27T22:06:56.946Z,4.95
2023-02-27T22:09:59.656Z,4.72
2023-02-27T22:13:02.424Z,4.80
2023-02-27T22:16:09.484Z,5.43
2023-02-27T22:19:19.609Z,4.15
2023-02-27T22:22:25.836Z,4.55
2023-02-27T22:25:28.567Z,4.37
2023-02-27T22:28:32.894Z,4.22
2023-02-27T22:31:37.839Z,4.40
2023-02-27T22:34:40.506Z,4.57
2023-02-27T22:37:43.345Z,4.68
2023-02-27T22:40:46.251Z,4.90
2023-02-27T22:43:48.500Z,4.18
2023-02-27T22:46:51.312Z,4.22
2023-02-27T22:49:54.007Z,4.60
2023-02-27T22:52:56.881Z,4.60
2023-02-27T22:55:59.652Z,4.03
2023-02-27T22:59:03.085Z,4.68
2023-02-27T23:02:06.287Z,5.62
2023-02-27T23:05:09.750Z,5.57
2023-02-27T23:08:12.094Z,4.90
2023-02-27T23:11:16.040Z,4.93
2023-02-27T23:14:19.199Z,5.30
2023-02-27T23:17:21.997Z,4.80
2023-02-27T23:20:24.234Z,4.87
2023-02-27T23:23:28.281Z,4.65
2023-02-27T23:26:30.900Z,5.00
2023-02-27T23:29:33.422Z,5.87
2023-02-27T23:32:43.420Z,5.75
2023-02-27T23:35:46.567Z,5.85
2023-02-27T23:38:49.106Z,6.43
2023-02-27T23:41:51.717Z,5.95
2023-02-27T23:45:32.744Z,6.07
2023-02-27T23:48:36.222Z,6.10
2023-02-27T23:51:38.970Z,6.00
2023-02-27T23:54:41.558Z,6.78
2023-02-27T23:57:44.764Z,6.75
